Terminal Aerodrome Forecast
Issued by NWS

Home | Current Version | Previous Version | Text Only | Print | Product List | Glossary On
Versions: 1 2 3 4 5 6 7 8 9 10 11 12 13 14 15
309
FTUS41 KAKQ 261404 AAA
TAFPHF
TAF AMD
KPHF 261404Z 2614/2712 09005KT P6SM BKN050
     FM261700 13006KT P6SM BKN060
     FM262200 15009KT P6SM SCT100
     FM270500 17007KT P6SM BKN200=

USA.gov is the U.S. government's official web portal to all federal, state and local government web resources and services.